sensor_id;sensor_type;location;lat;lon;timestamp;temperature;humidity
7413;DHT22;3748;48.136;11.538;2022-12-29T00:00:33;5.00;99.90
7413;DHT22;3748;48.136;11.538;2022-12-29T00:03:00;5.00;99.90
7413;DHT22;3748;48.136;11.538;2022-12-29T00:05:27;4.90;99.90
7413;DHT22;3748;48.136;11.538;2022-12-29T00:07:55;4.90;99.90
7413;DHT22;3748;48.136;11.538;2022-12-29T00:10:22;5.10;99.90
7413;DHT22;3748;48.136;11.538;2022-12-29T00:12:49;5.10;99.90
7413;DHT22;3748;48.136;11.538;2022-12-29T00:15:33;5.10;99.90
7413;DHT22;3748;48.136;11.538;2022-12-29T00:18:06;5.10;99.90
7413;DHT22;3748;48.136;11.538;2022-12-29T00:20:34;5.00;99.90
7413;DHT22;3748;48.136;11.538;2022-12-29T00:23:20;5.00;99.90
7413;DHT22;3748;48.136;11.538;2022-12-29T00:26:11;5.10;99.90
7413;DHT22;3748;48.136;11.538;2022-12-29T00:28:56;5.10;99.90
7413;DHT22;3748;48.136;11.538;2022-12-29T00:31:41;5.20;99.90
7413;DHT22;3748;48.136;11.538;2022-12-29T00:34:24;5.10;99.90
7413;DHT22;3748;48.136;11.538;2022-12-29T00:37:17;5.20;99.90
7413;DHT22;3748;48.136;11.538;2022-12-29T00:40:07;5.20;99.90
7413;DHT22;3748;48.136;11.538;2022-12-29T00:42:51;5.20;99.90
7413;DHT22;3748;48.136;11.538;2022-12-29T00:45:35;5.20;99.90
7413;DHT22;3748;48.136;11.538;2022-12-29T00:48:02;5.30;99.90
7413;DHT22;3748;48.136;11.538;2022-12-29T00:50:29;5.20;99.90
7413;DHT22;3748;48.136;11.538;2022-12-29T00:52:56;5.20;99.90
7413;DHT22;3748;48.136;11.538;2022-12-29T00:55:36;5.30;99.90
7413;DHT22;3748;48.136;11.538;2022-12-29T00:58:03;5.20;99.90
7413;DHT22;3748;48.136;11.538;2022-12-29T01:00:30;5.20;99.90
7413;DHT22;3748;48.136;11.538;2022-12-29T01:03:11;5.20;99.90
7413;DHT22;3748;48.136;11.538;2022-12-29T01:05:38;5.10;99.90
7413;DHT22;3748;48.136;11.538;2022-12-29T01:08:05;5.10;99.90
7413;DHT22;3748;48.136;11.538;2022-12-29T01:10:41;6.30;99.90
7413;DHT22;3748;48.136;11.538;2022-12-29T01:13:07;5.10;99.90
7413;DHT22;3748;48.136;11.538;2022-12-29T01:15:35;5.20;99.90
7413;DHT22;3748;48.136;11.538;2022-12-29T01:18:01;5.10;99.90
7413;DHT22;3748;48.136;11.538;2022-12-29T01:20:28;5.00;99.90
7413;DHT22;3748;48.136;11.538;2022-12-29T01:23:09;5.00;99.90
7413;DHT22;3748;48.136;11.538;2022-12-29T01:25:37;5.00;99.90
7413;DHT22;3748;48.136;11.538;2022-12-29T01:28:04;5.00;99.90
7413;DHT22;3748;48.136;11.538;2022-12-29T01:30:32;5.00;99.90
7413;DHT22;3748;48.136;11.538;2022-12-29T01:33:01;5.00;99.90
7413;DHT22;3748;48.136;11.538;2022-12-29T01:35:28;5.00;99.90
7413;DHT22;3748;48.136;11.538;2022-12-29T01:37:55;5.10;99.90
7413;DHT22;3748;48.136;11.538;2022-12-29T01:40:22;5.00;99.90
7413;DHT22;3748;48.136;11.538;2022-12-29T01:42:54;5.00;99.90
7413;DHT22;3748;48.136;11.538;2022-12-29T01:45:21;5.00;99.90
7413;DHT22;3748;48.136;11.538;2022-12-29T01:47:50;5.10;99.90
7413;DHT22;3748;48.136;11.538;2022-12-29T01:50:22;6.20;99.90
7413;DHT22;3748;48.136;11.538;2022-12-29T01:52:57;5.00;99.90
7413;DHT22;3748;48.136;11.538;2022-12-29T01:55:26;5.20;99.90
7413;DHT22;3748;48.136;11.538;2022-12-29T01:57:57;5.30;99.90
7413;DHT22;3748;48.136;11.538;2022-12-29T02:00:26;5.20;99.90
7413;DHT22;3748;48.136;11.538;2022-12-29T02:02:53;5.20;99.90
7413;DHT22;3748;48.136;11.538;2022-12-29T02:05:27;5.20;99.90
7413;DHT22;3748;48.136;11.538;2022-12-29T02:07:55;5.20;99.90
7413;DHT22;3748;48.136;11.538;2022-12-29T02:10:31;5.30;99.90
7413;DHT22;3748;48.136;11.538;2022-12-29T02:13:00;5.30;99.90
7413;DHT22;3748;48.136;11.538;2022-12-29T02:15:35;5.90;99.90
7413;DHT22;3748;48.136;11.538;2022-12-29T02:18:18;5.20;99.90
7413;DHT22;3748;48.136;11.538;2022-12-29T02:21:03;5.30;99.90
7413;DHT22;3748;48.136;11.538;2022-12-29T02:27:15;5.30;99.90
7413;DHT22;3748;48.136;11.538;2022-12-29T02:32:52;5.30;99.90
7413;DHT22;3748;48.136;11.538;2022-12-29T02:35:29;5.40;99.90
7413;DHT22;3748;48.136;11.538;2022-12-29T02:38:07;5.50;99.90
7413;DHT22;3748;48.136;11.538;2022-12-29T02:40:46;5.50;99.90
7413;DHT22;3748;48.136;11.538;2022-12-29T02:43:22;5.50;99.90
7413;DHT22;3748;48.136;11.538;2022-12-29T02:46:06;5.50;99.90
7413;DHT22;3748;48.136;11.538;2022-12-29T02:48:43;5.60;99.90
7413;DHT22;3748;48.136;11.538;2022-12-29T02:51:15;5.50;99.90
7413;DHT22;3748;48.136;11.538;2022-12-29T02:53:45;5.50;99.90
7413;DHT22;3748;48.136;11.538;2022-12-29T02:56:30;5.60;99.90
7413;DHT22;3748;48.136;11.538;2022-12-29T02:58:59;5.60;99.90
7413;DHT22;3748;48.136;11.538;2022-12-29T03:01:35;5.60;99.90
7413;DHT22;3748;48.136;11.538;2022-12-29T03:04:16;5.50;99.90
7413;DHT22;3748;48.136;11.538;2022-12-29T03:06:54;5.60;99.90
7413;DHT22;3748;48.136;11.538;2022-12-29T03:09:35;5.60;99.90
7413;DHT22;3748;48.136;11.538;2022-12-29T03:12:14;5.70;99.90
7413;DHT22;3748;48.136;11.538;2022-12-29T03:14:49;5.70;99.90
7413;DHT22;3748;48.136;11.538;2022-12-29T03:17:44;5.60;99.90
7413;DHT22;3748;48.136;11.538;2022-12-29T03:20:20;5.60;99.90
7413;DHT22;3748;48.136;11.538;2022-12-29T03:22:49;5.70;99.90
7413;DHT22;3748;48.136;11.538;2022-12-29T03:25:22;5.70;99.90
7413;DHT22;3748;48.136;11.538;2022-12-29T03:27:53;5.80;99.90
7413;DHT22;3748;48.136;11.538;2022-12-29T03:30:23;5.90;99.90
7413;DHT22;3748;48.136;11.538;2022-12-29T03:32:52;6.00;99.90
7413;DHT22;3748;48.136;11.538;2022-12-29T03:35:25;6.00;99.90
7413;DHT22;3748;48.136;11.538;2022-12-29T03:37:58;6.10;99.90
7413;DHT22;3748;48.136;11.538;2022-12-29T03:40:26;6.10;99.90
7413;DHT22;3748;48.136;11.538;2022-12-29T03:42:55;6.10;99.90
7413;DHT22;3748;48.136;11.538;2022-12-29T03:45:28;5.90;99.90
7413;DHT22;3748;48.136;11.538;2022-12-29T03:47:55;6.10;99.90
7413;DHT22;3748;48.136;11.538;2022-12-29T03:50:23;6.10;99.90
7413;DHT22;3748;48.136;11.538;2022-12-29T03:52:50;5.70;99.90
7413;DHT22;3748;48.136;11.538;2022-12-29T03:55:19;6.20;99.90
7413;DHT22;3748;48.136;11.538;2022-12-29T03:57:46;6.20;99.90
7413;DHT22;3748;48.136;11.538;2022-12-29T04:00:13;6.20;99.90
7413;DHT22;3748;48.136;11.538;2022-12-29T04:02:41;6.10;99.90
7413;DHT22;3748;48.136;11.538;2022-12-29T04:05:13;6.10;99.90
7413;DHT22;3748;48.136;11.538;2022-12-29T04:07:41;6.10;99.90
7413;DHT22;3748;48.136;11.538;2022-12-29T04:10:08;6.20;99.90
7413;DHT22;3748;48.136;11.538;2022-12-29T04:12:35;6.20;99.90
7413;DHT22;3748;48.136;11.538;2022-12-29T04:15:16;6.20;99.90
7413;DHT22;3748;48.136;11.538;2022-12-29T04:17:43;6.10;99.90
7413;DHT22;3748;48.136;11.538;2022-12-29T04:20:10;6.20;99.90
7413;DHT22;3748;48.136;11.538;2022-12-29T04:23:00;6.20;99.90
7413;DHT22;3748;48.136;11.538;2022-12-29T04:25:28;6.20;99.90
7413;DHT22;3748;48.136;11.538;2022-12-29T04:27:55;6.20;99.90
7413;DHT22;3748;48.136;11.538;2022-12-29T04:30:22;6.10;99.90
7413;DHT22;3748;48.136;11.538;2022-12-29T04:32:49;6.40;99.90
7413;DHT22;3748;48.136;11.538;2022-12-29T04:35:19;6.30;99.90
7413;DHT22;3748;48.136;11.538;2022-12-29T04:37:46;6.30;99.90
7413;DHT22;3748;48.136;11.538;2022-12-29T04:40:15;6.30;99.90
7413;DHT22;3748;48.136;11.538;2022-12-29T04:42:41;6.40;99.90
7413;DHT22;3748;48.136;11.538;2022-12-29T04:45:17;6.30;99.90
7413;DHT22;3748;48.136;11.538;2022-12-29T04:47:44;6.20;99.90
7413;DHT22;3748;48.136;11.538;2022-12-29T04:50:11;6.20;99.90
7413;DHT22;3748;48.136;11.538;2022-12-29T04:52:38;6.30;99.90
7413;DHT22;3748;48.136;11.538;2022-12-29T04:55:11;6.30;99.90
7413;DHT22;3748;48.136;11.538;2022-12-29T04:57:39;6.30;99.90
7413;DHT22;3748;48.136;11.538;2022-12-29T05:00:07;6.40;99.90
7413;DHT22;3748;48.136;11.538;2022-12-29T05:02:35;6.30;99.90
7413;DHT22;3748;48.136;11.538;2022-12-29T05:05:06;6.40;99.90
7413;DHT22;3748;48.136;11.538;2022-12-29T05:07:33;6.40;99.90
7413;DHT22;3748;48.136;11.538;2022-12-29T05:10:00;6.40;99.90
7413;DHT22;3748;48.136;11.538;2022-12-29T05:12:29;6.40;99.90
7413;DHT22;3748;48.136;11.538;2022-12-29T05:15:02;6.40;99.90
7413;DHT22;3748;48.136;11.538;2022-12-29T05:17:29;6.40;99.90
7413;DHT22;3748;48.136;11.538;2022-12-29T05:19:56;6.40;99.90
7413;DHT22;3748;48.136;11.538;2022-12-29T05:22:23;6.30;99.90
7413;DHT22;3748;48.136;11.538;2022-12-29T05:24:52;6.30;99.90
7413;DHT22;3748;48.136;11.538;2022-12-29T05:27:19;6.30;99.90
7413;DHT22;3748;48.136;11.538;2022-12-29T05:29:46;6.30;99.90
7413;DHT22;3748;48.136;11.538;2022-12-29T05:32:14;6.30;99.90
7413;DHT22;3748;48.136;11.538;2022-12-29T05:34:46;6.40;99.90
7413;DHT22;3748;48.136;11.538;2022-12-29T05:37:13;6.40;99.90
7413;DHT22;3748;48.136;11.538;2022-12-29T05:39:40;6.40;99.90
7413;DHT22;3748;48.136;11.538;2022-12-29T05:42:07;6.30;99.90
7413;DHT22;3748;48.136;11.538;2022-12-29T05:44:33;6.40;99.90
7413;DHT22;3748;48.136;11.538;2022-12-29T05:47:00;6.50;99.90
7413;DHT22;3748;48.136;11.538;2022-12-29T05:49:44;6.40;99.90
7413;DHT22;3748;48.136;11.538;2022-12-29T05:52:11;6.30;99.90
7413;DHT22;3748;48.136;11.538;2022-12-29T05:54:38;6.40;99.90
7413;DHT22;3748;48.136;11.538;2022-12-29T05:57:05;6.40;99.90
7413;DHT22;3748;48.136;11.538;2022-12-29T05:59:31;6.40;99.90
7413;DHT22;3748;48.136;11.538;2022-12-29T06:02:00;6.40;99.90
7413;DHT22;3748;48.136;11.538;2022-12-29T06:04:27;6.30;99.90
7413;DHT22;3748;48.136;11.538;2022-12-29T06:06:55;6.50;99.90
7413;DHT22;3748;48.136;11.538;2022-12-29T06:09:22;6.40;99.90
7413;DHT22;3748;48.136;11.538;2022-12-29T06:11:54;6.60;99.90
7413;DHT22;3748;48.136;11.538;2022-12-29T06:14:21;6.40;99.90
7413;DHT22;3748;48.136;11.538;2022-12-29T06:16:48;6.40;99.90
7413;DHT22;3748;48.136;11.538;2022-12-29T06:19:15;6.40;99.90
7413;DHT22;3748;48.136;11.538;2022-12-29T06:21:42;6.50;99.90
7413;DHT22;3748;48.136;11.538;2022-12-29T06:24:19;6.50;99.90
7413;DHT22;3748;48.136;11.538;2022-12-29T06:26:46;6.40;99.90
7413;DHT22;3748;48.136;11.538;2022-12-29T06:29:13;6.30;99.90
7413;DHT22;3748;48.136;11.538;2022-12-29T06:31:42;6.40;99.90
7413;DHT22;3748;48.136;11.538;2022-12-29T06:34:11;6.30;99.90
7413;DHT22;3748;48.136;11.538;2022-12-29T06:36:47;6.10;99.90
7413;DHT22;3748;48.136;11.538;2022-12-29T06:39:14;6.20;99.90
7413;DHT22;3748;48.136;11.538;2022-12-29T06:41:42;6.30;99.90
7413;DHT22;3748;48.136;11.538;2022-12-29T06:44:09;6.50;99.90
7413;DHT22;3748;48.136;11.538;2022-12-29T06:46:37;6.20;99.90
7413;DHT22;3748;48.136;11.538;2022-12-29T06:49:04;6.30;99.90
7413;DHT22;3748;48.136;11.538;2022-12-29T06:51:31;6.10;99.90
7413;DHT22;3748;48.136;11.538;2022-12-29T06:56:49;6.10;99.90
7413;DHT22;3748;48.136;11.538;2022-12-29T06:59:17;6.30;99.90
7413;DHT22;3748;48.136;11.538;2022-12-29T07:01:44;6.30;99.90
7413;DHT22;3748;48.136;11.538;2022-12-29T07:04:15;6.30;99.90
7413;DHT22;3748;48.136;11.538;2022-12-29T07:06:42;6.30;99.90
7413;DHT22;3748;48.136;11.538;2022-12-29T07:09:09;6.30;99.90
7413;DHT22;3748;48.136;11.538;2022-12-29T07:11:36;6.40;99.90
7413;DHT22;3748;48.136;11.538;2022-12-29T07:14:05;6.30;99.90
7413;DHT22;3748;48.136;11.538;2022-12-29T07:16:32;6.30;99.90
7413;DHT22;3748;48.136;11.538;2022-12-29T07:18:59;6.30;99.90
7413;DHT22;3748;48.136;11.538;2022-12-29T07:21:26;6.40;99.90
7413;DHT22;3748;48.136;11.538;2022-12-29T07:23:53;6.50;99.90
7413;DHT22;3748;48.136;11.538;2022-12-29T07:26:20;6.30;99.90
7413;DHT22;3748;48.136;11.538;2022-12-29T07:28:54;6.50;99.90
7413;DHT22;3748;48.136;11.538;2022-12-29T07:31:23;6.40;99.90
7413;DHT22;3748;48.136;11.538;2022-12-29T07:33:50;6.40;99.90
7413;DHT22;3748;48.136;11.538;2022-12-29T07:36:17;6.60;99.90
7413;DHT22;3748;48.136;11.538;2022-12-29T07:38:48;6.40;99.90
7413;DHT22;3748;48.136;11.538;2022-12-29T07:41:15;6.50;99.90
7413;DHT22;3748;48.136;11.538;2022-12-29T07:43:41;6.60;99.90
7413;DHT22;3748;48.136;11.538;2022-12-29T07:46:08;6.70;99.90
7413;DHT22;3748;48.136;11.538;2022-12-29T07:48:37;6.70;99.90
7413;DHT22;3748;48.136;11.538;2022-12-29T07:51:06;6.80;99.90
7413;DHT22;3748;48.136;11.538;2022-12-29T07:53:33;6.90;99.90
7413;DHT22;3748;48.136;11.538;2022-12-29T07:56:00;6.90;99.90
7413;DHT22;3748;48.136;11.538;2022-12-29T07:58:26;7.00;99.90
7413;DHT22;3748;48.136;11.538;2022-12-29T08:00:54;7.00;99.90
7413;DHT22;3748;48.136;11.538;2022-12-29T08:03:20;7.10;99.90
7413;DHT22;3748;48.136;11.538;2022-12-29T08:05:53;7.30;99.90
7413;DHT22;3748;48.136;11.538;2022-12-29T08:08:20;7.30;99.90
7413;DHT22;3748;48.136;11.538;2022-12-29T08:10:47;7.20;99.90
7413;DHT22;3748;48.136;11.538;2022-12-29T08:13:14;7.20;99.90
7413;DHT22;3748;48.136;11.538;2022-12-29T08:15:41;7.20;99.90
7413;DHT22;3748;48.136;11.538;2022-12-29T08:18:22;7.20;99.90
7413;DHT22;3748;48.136;11.538;2022-12-29T08:20:49;7.30;99.90
7413;DHT22;3748;48.136;11.538;2022-12-29T08:23:17;7.30;99.90
7413;DHT22;3748;48.136;11.538;2022-12-29T08:25:44;7.30;99.90
7413;DHT22;3748;48.136;11.538;2022-12-29T08:28:13;7.40;99.90
7413;DHT22;3748;48.136;11.538;2022-12-29T08:30:40;7.40;99.90
7413;DHT22;3748;48.136;11.538;2022-12-29T08:33:07;7.50;99.90
7413;DHT22;3748;48.136;11.538;2022-12-29T08:35:34;7.50;99.90
7413;DHT22;3748;48.136;11.538;2022-12-29T08:38:01;7.60;99.90
7413;DHT22;3748;48.136;11.538;2022-12-29T08:40:32;7.80;99.90
7413;DHT22;3748;48.136;11.538;2022-12-29T08:42:59;7.90;99.90
7413;DHT22;3748;48.136;11.538;2022-12-29T08:45:26;8.10;99.90
7413;DHT22;3748;48.136;11.538;2022-12-29T08:47:53;8.10;99.90
7413;DHT22;3748;48.136;11.538;2022-12-29T08:50:21;8.20;99.90
7413;DHT22;3748;48.136;11.538;2022-12-29T08:52:48;8.20;99.90
7413;DHT22;3748;48.136;11.538;2022-12-29T08:55:15;8.40;99.90
7413;DHT22;3748;48.136;11.538;2022-12-29T08:57:43;8.40;99.90
7413;DHT22;3748;48.136;11.538;2022-12-29T09:00:15;8.50;99.90
7413;DHT22;3748;48.136;11.538;2022-12-29T09:02:42;8.70;99.90
7413;DHT22;3748;48.136;11.538;2022-12-29T09:05:09;8.50;99.90
7413;DHT22;3748;48.136;11.538;2022-12-29T09:07:36;8.70;99.90
7413;DHT22;3748;48.136;11.538;2022-12-29T09:10:04;8.70;99.90
7413;DHT22;3748;48.136;11.538;2022-12-29T09:12:32;8.60;99.90
7413;DHT22;3748;48.136;11.538;2022-12-29T09:15:00;8.70;99.90
7413;DHT22;3748;48.136;11.538;2022-12-29T09:17:27;8.90;99.90
7413;DHT22;3748;48.136;11.538;2022-12-29T09:20:10;9.00;99.90
7413;DHT22;3748;48.136;11.538;2022-12-29T09:22:37;9.00;99.90
7413;DHT22;3748;48.136;11.538;2022-12-29T09:25:10;9.00;99.90
7413;DHT22;3748;48.136;11.538;2022-12-29T09:27:37;9.10;99.90
7413;DHT22;3748;48.136;11.538;2022-12-29T09:30:08;9.30;99.90
7413;DHT22;3748;48.136;11.538;2022-12-29T09:32:36;9.40;99.90
7413;DHT22;3748;48.136;11.538;2022-12-29T09:35:03;9.50;99.90
7413;DHT22;3748;48.136;11.538;2022-12-29T09:37:44;9.60;99.90
7413;DHT22;3748;48.136;11.538;2022-12-29T09:40:24;9.60;99.90
7413;DHT22;3748;48.136;11.538;2022-12-29T09:43:05;9.80;99.90
7413;DHT22;3748;48.136;11.538;2022-12-29T09:45:43;9.70;99.90
7413;DHT22;3748;48.136;11.538;2022-12-29T09:48:16;9.70;99.90
7413;DHT22;3748;48.136;11.538;2022-12-29T09:50:47;9.40;99.90
7413;DHT22;3748;48.136;11.538;2022-12-29T09:53:19;9.60;99.90
7413;DHT22;3748;48.136;11.538;2022-12-29T09:55:49;9.50;99.90
7413;DHT22;3748;48.136;11.538;2022-12-29T09:58:22;9.50;99.90
7413;DHT22;3748;48.136;11.538;2022-12-29T10:00:56;9.60;99.90
7413;DHT22;3748;48.136;11.538;2022-12-29T10:03:31;9.50;99.90
7413;DHT22;3748;48.136;11.538;2022-12-29T10:06:09;9.50;99.90
7413;DHT22;3748;48.136;11.538;2022-12-29T10:08:40;9.60;99.90
7413;DHT22;3748;48.136;11.538;2022-12-29T10:11:19;9.60;99.90
7413;DHT22;3748;48.136;11.538;2022-12-29T10:14:08;9.60;99.90
7413;DHT22;3748;48.136;11.538;2022-12-29T10:16:44;9.60;99.90
7413;DHT22;3748;48.136;11.538;2022-12-29T10:19:28;9.60;99.90
7413;DHT22;3748;48.136;11.538;2022-12-29T10:22:07;9.70;99.90
7413;DHT22;3748;48.136;11.538;2022-12-29T10:24:39;9.70;99.90
7413;DHT22;3748;48.136;11.538;2022-12-29T10:27:10;9.80;99.90
7413;DHT22;3748;48.136;11.538;2022-12-29T10:29:46;9.80;99.90
7413;DHT22;3748;48.136;11.538;2022-12-29T10:32:23;9.90;99.90
7413;DHT22;3748;48.136;11.538;2022-12-29T10:34:54;9.80;99.90
7413;DHT22;3748;48.136;11.538;2022-12-29T10:37:30;10.00;99.90
7413;DHT22;3748;48.136;11.538;2022-12-29T10:39:59;10.10;99.90
7413;DHT22;3748;48.136;11.538;2022-12-29T10:42:29;10.00;99.90
7413;DHT22;3748;48.136;11.538;2022-12-29T10:44:59;10.00;99.90
7413;DHT22;3748;48.136;11.538;2022-12-29T10:47:33;10.10;99.90
7413;DHT22;3748;48.136;11.538;2022-12-29T10:50:06;10.10;99.90
7413;DHT22;3748;48.136;11.538;2022-12-29T10:52:33;10.10;99.90
7413;DHT22;3748;48.136;11.538;2022-12-29T10:55:19;10.20;99.90
7413;DHT22;3748;48.136;11.538;2022-12-29T10:57:48;10.20;99.90
7413;DHT22;3748;48.136;11.538;2022-12-29T11:00:17;10.00;99.90
7413;DHT22;3748;48.136;11.538;2022-12-29T11:05:57;10.10;99.90
7413;DHT22;3748;48.136;11.538;2022-12-29T11:08:30;10.20;99.90
7413;DHT22;3748;48.136;11.538;2022-12-29T11:11:00;10.40;99.90
7413;DHT22;3748;48.136;11.538;2022-12-29T11:13:29;10.40;99.90
7413;DHT22;3748;48.136;11.538;2022-12-29T11:15:56;10.60;99.90
7413;DHT22;3748;48.136;11.538;2022-12-29T11:18:35;10.70;99.90
7413;DHT22;3748;48.136;11.538;2022-12-29T11:21:05;10.70;99.90
7413;DHT22;3748;48.136;11.538;2022-12-29T11:23:34;11.10;99.90
7413;DHT22;3748;48.136;11.538;2022-12-29T11:26:17;11.20;99.90
7413;DHT22;3748;48.136;11.538;2022-12-29T11:28:47;11.70;99.90
7413;DHT22;3748;48.136;11.538;2022-12-29T11:31:40;11.90;99.90
7413;DHT22;3748;48.136;11.538;2022-12-29T11:34:17;12.30;99.90
7413;DHT22;3748;48.136;11.538;2022-12-29T11:36:47;12.40;99.90
7413;DHT22;3748;48.136;11.538;2022-12-29T11:39:26;12.60;99.90
7413;DHT22;3748;48.136;11.538;2022-12-29T11:41:54;12.90;99.90
7413;DHT22;3748;48.136;11.538;2022-12-29T11:44:21;13.10;99.90
7413;DHT22;3748;48.136;11.538;2022-12-29T11:46:50;13.40;99.90
7413;DHT22;3748;48.136;11.538;2022-12-29T11:49:22;13.10;99.90
7413;DHT22;3748;48.136;11.538;2022-12-29T11:51:56;13.20;99.90
7413;DHT22;3748;48.136;11.538;2022-12-29T11:54:26;13.30;99.90
7413;DHT22;3748;48.136;11.538;2022-12-29T11:57:15;13.40;99.90
7413;DHT22;3748;48.136;11.538;2022-12-29T11:59:43;13.70;99.90
7413;DHT22;3748;48.136;11.538;2022-12-29T12:02:42;14.00;99.60
7413;DHT22;3748;48.136;11.538;2022-12-29T12:05:22;13.50;99.50
7413;DHT22;3748;48.136;11.538;2022-12-29T12:07:56;13.80;99.90
7413;DHT22;3748;48.136;11.538;2022-12-29T12:10:36;14.00;99.90
7413;DHT22;3748;48.136;11.538;2022-12-29T12:13:22;13.70;99.80
7413;DHT22;3748;48.136;11.538;2022-12-29T12:15:56;13.90;99.80
7413;DHT22;3748;48.136;11.538;2022-12-29T12:18:34;14.20;99.00
7413;DHT22;3748;48.136;11.538;2022-12-29T12:21:27;14.40;98.70
7413;DHT22;3748;48.136;11.538;2022-12-29T12:24:20;13.50;99.60
7413;DHT22;3748;48.136;11.538;2022-12-29T12:26:56;13.70;99.40
7413;DHT22;3748;48.136;11.538;2022-12-29T12:29:28;13.90;99.70
7413;DHT22;3748;48.136;11.538;2022-12-29T12:32:04;13.80;99.90
7413;DHT22;3748;48.136;11.538;2022-12-29T12:34:38;14.00;99.90
7413;DHT22;3748;48.136;11.538;2022-12-29T12:37:29;14.20;99.90
7413;DHT22;3748;48.136;11.538;2022-12-29T12:40:22;14.00;99.90
7413;DHT22;3748;48.136;11.538;2022-12-29T12:42:58;14.70;99.90
7413;DHT22;3748;48.136;11.538;2022-12-29T12:45:45;14.30;99.90
7413;DHT22;3748;48.136;11.538;2022-12-29T12:48:34;14.20;99.90
7413;DHT22;3748;48.136;11.538;2022-12-29T12:51:11;14.10;99.90
7413;DHT22;3748;48.136;11.538;2022-12-29T12:53:56;13.70;99.90
7413;DHT22;3748;48.136;11.538;2022-12-29T12:59:36;13.40;99.90
7413;DHT22;3748;48.136;11.538;2022-12-29T13:05:15;13.10;99.90
7413;DHT22;3748;48.136;11.538;2022-12-29T13:11:02;13.00;99.90
7413;DHT22;3748;48.136;11.538;2022-12-29T13:13:51;12.90;99.90
7413;DHT22;3748;48.136;11.538;2022-12-29T13:16:29;12.90;99.90
7413;DHT22;3748;48.136;11.538;2022-12-29T13:19:19;12.90;99.90
7413;DHT22;3748;48.136;11.538;2022-12-29T13:21:57;13.00;99.90
7413;DHT22;3748;48.136;11.538;2022-12-29T13:24:31;13.00;99.90
7413;DHT22;3748;48.136;11.538;2022-12-29T13:27:10;13.10;99.90
7413;DHT22;3748;48.136;11.538;2022-12-29T13:29:56;12.90;99.90
7413;DHT22;3748;48.136;11.538;2022-12-29T13:32:35;13.00;99.90
7413;DHT22;3748;48.136;11.538;2022-12-29T13:35:38;13.00;99.90
7413;DHT22;3748;48.136;11.538;2022-12-29T13:38:22;12.80;99.90
7413;DHT22;3748;48.136;11.538;2022-12-29T13:40:54;12.80;99.90
7413;DHT22;3748;48.136;11.538;2022-12-29T13:43:23;12.80;99.90
7413;DHT22;3748;48.136;11.538;2022-12-29T13:46:02;12.50;99.90
7413;DHT22;3748;48.136;11.538;2022-12-29T13:48:37;12.50;99.90
7413;DHT22;3748;48.136;11.538;2022-12-29T13:51:08;12.40;99.90
7413;DHT22;3748;48.136;11.538;2022-12-29T13:53:41;12.30;99.90
7413;DHT22;3748;48.136;11.538;2022-12-29T13:56:15;12.40;99.90
7413;DHT22;3748;48.136;11.538;2022-12-29T13:58:56;12.40;99.90
7413;DHT22;3748;48.136;11.538;2022-12-29T14:01:30;12.40;99.90
7413;DHT22;3748;48.136;11.538;2022-12-29T14:04:02;12.40;99.90
7413;DHT22;3748;48.136;11.538;2022-12-29T14:06:30;12.40;99.90
7413;DHT22;3748;48.136;11.538;2022-12-29T14:09:30;12.30;99.90
7413;DHT22;3748;48.136;11.538;2022-12-29T14:11:59;12.40;99.90
7413;DHT22;3748;48.136;11.538;2022-12-29T14:14:29;12.20;99.90
7413;DHT22;3748;48.136;11.538;2022-12-29T14:17:09;12.20;99.90
7413;DHT22;3748;48.136;11.538;2022-12-29T14:19:40;12.20;99.90
7413;DHT22;3748;48.136;11.538;2022-12-29T14:22:12;12.10;99.90
7413;DHT22;3748;48.136;11.538;2022-12-29T14:24:42;12.10;99.90
7413;DHT22;3748;48.136;11.538;2022-12-29T14:27:43;12.10;99.90
7413;DHT22;3748;48.136;11.538;2022-12-29T14:33:29;11.90;99.90
7413;DHT22;3748;48.136;11.538;2022-12-29T14:35:58;11.90;99.90
7413;DHT22;3748;48.136;11.538;2022-12-29T14:38:58;12.00;99.90
7413;DHT22;3748;48.136;11.538;2022-12-29T14:41:35;11.90;99.90
7413;DHT22;3748;48.136;11.538;2022-12-29T14:44:18;11.90;99.90
7413;DHT22;3748;48.136;11.538;2022-12-29T14:46:55;12.00;99.90
7413;DHT22;3748;48.136;11.538;2022-12-29T14:49:27;11.60;99.90
7413;DHT22;3748;48.136;11.538;2022-12-29T14:52:05;11.50;99.90
7413;DHT22;3748;48.136;11.538;2022-12-29T14:54:47;11.10;99.90
7413;DHT22;3748;48.136;11.538;2022-12-29T14:57:31;11.30;99.90
7413;DHT22;3748;48.136;11.538;2022-12-29T15:00:05;11.20;99.90
7413;DHT22;3748;48.136;11.538;2022-12-29T15:02:49;11.10;99.90
7413;DHT22;3748;48.136;11.538;2022-12-29T15:05:36;10.90;99.90
7413;DHT22;3748;48.136;11.538;2022-12-29T15:08:05;10.90;99.90
7413;DHT22;3748;48.136;11.538;2022-12-29T15:10:55;10.70;99.90
7413;DHT22;3748;48.136;11.538;2022-12-29T15:13:36;10.60;99.90
7413;DHT22;3748;48.136;11.538;2022-12-29T15:16:04;10.60;99.90
7413;DHT22;3748;48.136;11.538;2022-12-29T15:18:32;10.70;99.90
7413;DHT22;3748;48.136;11.538;2022-12-29T15:21:03;10.60;99.90
7413;DHT22;3748;48.136;11.538;2022-12-29T15:26:10;10.60;99.90
7413;DHT22;3748;48.136;11.538;2022-12-29T15:28:51;10.50;99.90
7413;DHT22;3748;48.136;11.538;2022-12-29T15:31:25;10.40;99.90
7413;DHT22;3748;48.136;11.538;2022-12-29T15:34:00;10.30;99.90
7413;DHT22;3748;48.136;11.538;2022-12-29T15:36:38;10.30;99.90
7413;DHT22;3748;48.136;11.538;2022-12-29T15:39:18;10.40;99.90
7413;DHT22;3748;48.136;11.538;2022-12-29T15:41:50;10.30;99.90
7413;DHT22;3748;48.136;11.538;2022-12-29T15:44:47;10.40;99.90
7413;DHT22;3748;48.136;11.538;2022-12-29T16:04:18;10.40;99.90
7413;DHT22;3748;48.136;11.538;2022-12-29T16:06:56;10.40;99.90
7413;DHT22;3748;48.136;11.538;2022-12-29T16:09:30;10.20;99.90
7413;DHT22;3748;48.136;11.538;2022-12-29T16:11:59;10.10;99.90
7413;DHT22;3748;48.136;11.538;2022-12-29T16:17:48;10.10;99.90
7413;DHT22;3748;48.136;11.538;2022-12-29T16:20:21;10.30;99.90
7413;DHT22;3748;48.136;11.538;2022-12-29T16:22:50;10.20;99.90
7413;DHT22;3748;48.136;11.538;2022-12-29T16:25:22;10.10;99.90
7413;DHT22;3748;48.136;11.538;2022-12-29T16:27:50;10.10;99.90
7413;DHT22;3748;48.136;11.538;2022-12-29T16:30:20;10.00;99.90
7413;DHT22;3748;48.136;11.538;2022-12-29T16:32:49;10.20;99.90
7413;DHT22;3748;48.136;11.538;2022-12-29T16:35:20;10.20;99.90
7413;DHT22;3748;48.136;11.538;2022-12-29T16:37:49;10.20;99.90
7413;DHT22;3748;48.136;11.538;2022-12-29T16:40:32;10.00;99.90
7413;DHT22;3748;48.136;11.538;2022-12-29T16:43:04;10.10;99.90
7413;DHT22;3748;48.136;11.538;2022-12-29T16:48:35;10.10;99.90
7413;DHT22;3748;48.136;11.538;2022-12-29T16:51:09;10.10;99.90
7413;DHT22;3748;48.136;11.538;2022-12-29T16:53:39;10.00;99.90
7413;DHT22;3748;48.136;11.538;2022-12-29T16:56:14;10.00;99.90
7413;DHT22;3748;48.136;11.538;2022-12-29T16:59:00;10.00;99.90
7413;DHT22;3748;48.136;11.538;2022-12-29T17:01:27;10.00;99.90
7413;DHT22;3748;48.136;11.538;2022-12-29T17:03:58;10.00;99.90
7413;DHT22;3748;48.136;11.538;2022-12-29T17:06:27;9.90;99.90
7413;DHT22;3748;48.136;11.538;2022-12-29T17:08:57;10.00;99.90
7413;DHT22;3748;48.136;11.538;2022-12-29T17:11:27;10.00;99.90
7413;DHT22;3748;48.136;11.538;2022-12-29T17:14:18;10.00;99.90
7413;DHT22;3748;48.136;11.538;2022-12-29T17:16:46;9.80;99.90
7413;DHT22;3748;48.136;11.538;2022-12-29T17:19:16;9.70;99.90
7413;DHT22;3748;48.136;11.538;2022-12-29T17:21:52;10.00;99.90
7413;DHT22;3748;48.136;11.538;2022-12-29T17:24:19;10.00;99.90